Time;durP1;ratioP1;P1;durP2;ratioP2;P2;SDS_P1;SDS_P2;PMS_P1;PMS_P2;Temp;Humidity;BMP_temperature;BMP_pressure;BME280_temperature;BME280_humidity;BME280_pressure;Samples;Min_cycle;Max_cycle;Signal;HPM_P1;HPM_P2
2021/05/02 00:00:34;;;;;;;17.93;8.93;;;;;;;6.24;71.06;100509.06;128438;1101;62173;-79
2021/05/02 00:03:03;;;;;;;19.27;9.13;;;;;;;6.21;70.59;100512.01;128346;1101;62054;-79
2021/05/02 00:05:32;;;;;;;18.63;10.03;;;;;;;6.22;70.44;100510.20;128311;1101;62326;-79
2021/05/02 00:08:00;;;;;;;14.17;9.47;;;;;;;6.22;70.03;100507.56;128324;1101;62454;-79
2021/05/02 00:10:31;;;;;;;15.03;9.23;;;;;;;6.22;70.12;100503.11;128484;1101;64014;-79
2021/05/02 00:12:59;;;;;;;13.80;8.77;;;;;;;6.23;69.90;100506.59;128410;1101;62896;-79
2021/05/02 00:15:27;;;;;;;16.60;9.77;;;;;;;6.24;70.44;100505.61;128435;1101;62238;-80
2021/05/02 00:17:55;;;;;;;14.63;9.27;;;;;;;6.22;70.60;100512.83;128153;1102;62128;-79
2021/05/02 00:20:25;;;;;;;14.77;9.37;;;;;;;6.22;70.52;100510.20;128446;1101;62109;-79
2021/05/02 00:22:55;;;;;;;12.10;8.20;;;;;;;6.18;71.15;100506.20;128206;1102;62515;-80
2021/05/02 00:25:25;;;;;;;10.10;7.37;;;;;;;6.14;71.30;100500.41;128425;1101;63677;-80
2021/05/02 00:27:52;;;;;;;14.37;8.93;;;;;;;6.13;71.22;100504.84;128444;1101;62427;-79
2021/05/02 00:30:22;;;;;;;14.10;7.37;;;;;;;6.11;71.04;100503.35;128489;1101;62254;-80
2021/05/02 00:32:51;;;;;;;12.80;6.73;;;;;;;6.07;72.18;100499.36;128464;1101;62582;-80
2021/05/02 00:35:21;;;;;;;12.53;8.37;;;;;;;6.05;71.57;100496.88;128440;1101;62989;-79
2021/05/02 00:37:48;;;;;;;19.30;10.03;;;;;;;6.04;71.17;100500.50;128157;1102;62765;-79
2021/05/02 00:40:25;;;;;;;16.53;9.87;;;;;;;6.03;72.14;100504.09;128393;1101;62218;-80
2021/05/02 00:42:53;;;;;;;16.53;10.40;;;;;;;6.04;72.04;100505.77;128428;1101;62303;-80
2021/05/02 00:45:43;;;;;;;16.30;9.57;;;;;;;6.04;73.04;100499.67;128384;1101;62290;-79
2021/05/02 00:48:17;;;;;;;15.90;10.03;;;;;;;6.04;72.27;100508.40;128425;1101;62928;-79
2021/05/02 00:50:56;;;;;;;16.23;9.83;;;;;;;6.04;72.82;100500.50;128131;1101;62635;-80
2021/05/02 00:53:46;;;;;;;14.37;10.13;;;;;;;6.04;72.57;100494.41;128404;1101;62236;-80
2021/05/02 00:56:22;;;;;;;14.33;8.97;;;;;;;6.03;72.99;100493.56;128456;1101;62281;-81
2021/05/02 00:59:01;;;;;;;14.00;9.43;;;;;;;6.01;73.36;100495.52;128421;1101;62140;-81
2021/05/02 01:01:36;;;;;;;23.67;8.93;;;;;;;5.99;73.90;100496.64;128443;1101;62802;-80
2021/05/02 01:04:03;;;;;;;11.83;7.23;;;;;;;5.97;73.20;100495.97;128421;1101;63286;-81
2021/05/02 01:06:32;;;;;;;11.40;7.40;;;;;;;5.93;74.20;100493.62;128346;1101;62124;-81
2021/05/02 01:09:03;;;;;;;17.10;10.67;;;;;;;5.93;73.92;100487.53;128455;1101;62221;-80
2021/05/02 01:11:32;;;;;;;17.23;11.03;;;;;;;5.93;74.46;100493.62;128428;1101;61689;-81
2021/05/02 01:14:00;;;;;;;17.10;10.20;;;;;;;5.93;74.64;100490.16;128459;1101;62051;-80
2021/05/02 01:16:31;;;;;;;17.20;10.23;;;;;;;5.95;74.43;100493.51;128427;1101;63077;-81
2021/05/02 01:18:58;;;;;;;20.67;11.83;;;;;;;5.96;74.71;100496.96;128426;1101;62232;-80
2021/05/02 01:21:35;;;;;;;16.13;10.23;;;;;;;5.94;75.61;100499.70;128425;1101;62864;-80
2021/05/02 01:24:03;;;;;;;17.37;11.00;;;;;;;5.93;75.11;100498.88;128407;1101;62807;-79
2021/05/02 01:26:30;;;;;;;13.93;10.00;;;;;;;5.91;75.91;100500.83;128445;1101;62088;-80
2021/05/02 01:28:58;;;;;;;13.17;8.63;;;;;;;5.89;75.48;100492.26;128440;1101;62240;-80
2021/05/02 01:31:27;;;;;;;12.40;7.37;;;;;;;5.86;75.78;100497.80;128429;1101;62251;-79
2021/05/02 01:33:54;;;;;;;17.93;9.97;;;;;;;5.83;75.76;100497.30;128402;1101;62310;-80
2021/05/02 01:36:21;;;;;;;19.30;12.40;;;;;;;5.82;76.57;100500.89;128405;1101;62444;-80
2021/05/02 01:38:50;;;;;;;18.33;11.67;;;;;;;5.80;75.91;100493.16;128522;1101;62079;-79
2021/05/02 01:41:17;;;;;;;18.47;10.93;;;;;;;5.81;75.96;100486.91;128474;1101;62126;-80
2021/05/02 01:43:44;;;;;;;17.83;10.87;;;;;;;5.79;76.90;100496.75;128344;1101;62438;-78
2021/05/02 01:46:14;;;;;;;20.17;11.90;;;;;;;5.81;76.69;100496.61;128413;1101;62850;-78
2021/05/02 01:48:42;;;;;;;24.47;13.13;;;;;;;5.80;76.78;100494.95;128351;1101;62930;-79
2021/05/02 01:51:14;;;;;;;16.80;11.43;;;;;;;5.79;76.65;100495.94;128425;1101;62497;-78
2021/05/02 01:53:42;;;;;;;16.23;10.00;;;;;;;5.77;77.36;100492.63;128323;1101;62164;-78
2021/05/02 01:56:12;;;;;;;13.23;8.40;;;;;;;5.73;77.62;100495.53;128356;1101;61959;-78
2021/05/02 01:58:39;;;;;;;15.00;9.07;;;;;;;5.72;78.33;100499.16;128638;1101;62311;-78
2021/05/02 02:01:10;;;;;;;15.10;8.07;;;;;;;5.70;78.60;100493.21;128604;1101;62134;-78
2021/05/02 02:03:37;;;;;;;20.73;13.10;;;;;;;5.68;78.54;100484.64;128407;1101;62253;-78
2021/05/02 02:06:06;;;;;;;22.67;12.77;;;;;;;5.70;77.91;100495.84;128424;1101;62358;-77
2021/05/02 02:08:33;;;;;;;19.43;11.50;;;;;;;5.70;78.49;100492.39;128417;1101;62736;-78
2021/05/02 02:11:01;;;;;;;22.50;11.83;;;;;;;5.71;77.78;100491.40;128408;1101;62640;-78
2021/05/02 02:13:28;;;;;;;17.50;11.07;;;;;;;5.70;78.70;100490.58;128379;1101;62243;-79
2021/05/02 02:15:55;;;;;;;17.63;10.20;;;;;;;5.70;78.98;100492.39;128419;1101;63041;-78
2021/05/02 02:18:22;;;;;;;17.67;10.57;;;;;;;5.69;78.41;100496.80;128379;1101;62310;-78
2021/05/02 02:20:54;;;;;;;20.53;11.73;;;;;;;5.68;78.25;100495.16;128344;1101;62029;-78
2021/05/02 02:23:24;;;;;;;17.57;10.33;;;;;;;5.67;78.25;100498.78;128385;1101;62902;-78
2021/05/02 02:25:53;;;;;;;18.23;10.00;;;;;;;5.66;78.62;100497.11;128399;1101;62108;-77
2021/05/02 02:28:22;;;;;;;22.83;12.60;;;;;;;5.66;79.29;100497.11;128421;1101;62332;-78
2021/05/02 02:30:55;;;;;;;19.60;10.50;;;;;;;5.65;79.93;100490.21;128397;1101;62572;-77
2021/05/02 02:33:24;;;;;;;17.83;10.47;;;;;;;5.66;79.55;100502.38;128403;1101;62354;-78
2021/05/02 02:35:53;;;;;;;22.83;11.80;;;;;;;5.68;79.12;100499.61;128415;1101;62071;-78
2021/05/02 02:38:23;;;;;;;20.67;12.33;;;;;;;5.68;79.99;100497.80;128424;1101;62580;-78
2021/05/02 02:40:52;;;;;;;18.93;10.70;;;;;;;5.68;80.24;100505.69;128422;1101;62479;-78
2021/05/02 02:43:21;;;;;;;12.40;7.57;;;;;;;5.67;79.73;100501.42;128370;1101;62806;-79
2021/05/02 02:45:52;;;;;;;23.07;13.10;;;;;;;5.68;79.44;100503.06;128386;1101;62511;-78
2021/05/02 02:48:26;;;;;;;15.87;9.13;;;;;;;5.70;79.73;100509.00;128430;1101;62766;-77
2021/05/02 02:50:56;;;;;;;18.67;9.30;;;;;;;5.71;80.22;100499.30;128411;1101;62221;-78
2021/05/02 02:53:26;;;;;;;20.00;11.93;;;;;;;5.75;79.50;100507.73;128385;1101;62362;-78
2021/05/02 02:56:14;;;;;;;16.07;7.77;;;;;;;5.73;79.83;100508.69;128389;1101;62650;-78
2021/05/02 02:58:46;;;;;;;16.07;8.20;;;;;;;5.75;80.27;100505.10;128387;1101;62314;-78
2021/05/02 03:01:15;;;;;;;12.37;7.70;;;;;;;5.73;80.40;100508.69;128413;1101;62127;-78
2021/05/02 03:03:43;;;;;;;17.00;9.93;;;;;;;5.75;80.07;100505.10;128371;1101;62183;-78
2021/05/02 03:06:11;;;;;;;19.07;12.07;;;;;;;5.74;79.35;100506.91;128374;1101;62238;-78
2021/05/02 03:08:40;;;;;;;19.27;10.23;;;;;;;5.72;80.00;100506.23;128413;1101;62124;-78
2021/05/02 03:11:08;;;;;;;14.73;9.47;;;;;;;5.70;79.80;100511.63;128382;1101;62265;-77
2021/05/02 03:13:36;;;;;;;14.63;9.43;;;;;;;5.66;79.82;100512.91;128411;1101;62077;-77
2021/05/02 03:16:04;;;;;;;17.63;9.60;;;;;;;5.62;80.39;100505.45;128417;1101;62169;-78
2021/05/02 03:18:41;;;;;;;18.20;10.43;;;;;;;5.60;79.75;100515.30;128386;1101;62087;-78
2021/05/02 03:21:11;;;;;;;16.97;10.33;;;;;;;5.56;79.97;100514.75;128412;1101;62877;-77
2021/05/02 03:23:40;;;;;;;17.97;11.50;;;;;;;5.54;80.87;100511.44;128387;1101;62755;-77
2021/05/02 03:26:08;;;;;;;18.10;10.63;;;;;;;5.54;80.13;100516.70;128431;1101;62052;-78
2021/05/02 03:28:43;;;;;;;14.97;9.80;;;;;;;5.51;80.95;100514.38;128413;1101;62413;-78
2021/05/02 03:31:11;;;;;;;22.50;12.40;;;;;;;5.50;80.83;100517.97;128216;1101;62576;-78
2021/05/02 03:33:47;;;;;;;18.73;11.20;;;;;;;5.49;80.58;100516.33;128423;1101;62190;-79
2021/05/02 03:36:30;;;;;;;21.50;12.07;;;;;;;5.48;80.56;100515.50;128396;1101;62447;-78
2021/05/02 03:38:59;;;;;;;16.00;9.23;;;;;;;5.46;80.96;100517.45;128410;1101;62365;-77
2021/05/02 03:41:27;;;;;;;17.93;10.43;;;;;;;5.46;80.71;100527.98;128410;1101;62551;-77
2021/05/02 03:43:54;;;;;;;20.87;12.07;;;;;;;5.42;80.50;100526.61;128347;1101;62511;-77
2021/05/02 03:46:23;;;;;;;16.17;8.57;;;;;;;5.40;80.78;100527.70;128433;1101;62909;-78
2021/05/02 03:48:57;;;;;;;17.77;11.40;;;;;;;5.38;80.96;100533.13;128392;1101;62288;-78
2021/05/02 03:51:26;;;;;;;15.27;10.20;;;;;;;5.36;81.57;100534.25;128422;1101;62165;-79
2021/05/02 03:53:54;;;;;;;17.33;10.93;;;;;;;5.36;81.42;100550.04;128181;1101;62174;-78
2021/05/02 03:56:37;;;;;;;21.50;12.27;;;;;;;5.33;81.67;100542.42;128422;1101;62194;-78
2021/05/02 03:59:17;;;;;;;20.03;11.13;;;;;;;5.28;81.86;100546.31;128394;1101;62653;-78
2021/05/02 04:01:50;;;;;;;19.50;11.60;;;;;;;5.26;82.17;100553.52;128433;1101;62253;-79
2021/05/02 04:04:25;;;;;;;16.50;10.20;;;;;;;5.26;81.60;100553.52;128429;1101;62070;-79
2021/05/02 04:07:06;;;;;;;16.50;9.10;;;;;;;5.25;81.88;100557.13;128456;1101;62087;-79
2021/05/02 04:09:34;;;;;;;18.77;11.47;;;;;;;5.23;82.50;100558.25;128439;1101;62192;-78
2021/05/02 04:12:03;;;;;;;19.10;11.70;;;;;;;5.22;81.97;100560.03;128424;1101;62083;-78
2021/05/02 04:14:30;;;;;;;18.43;9.73;;;;;;;5.20;82.83;100564.61;128422;1101;62053;-79
2021/05/02 04:17:00;;;;;;;18.37;12.57;;;;;;;5.20;83.19;100561.97;128416;1101;62901;-78
2021/05/02 04:19:28;;;;;;;15.40;9.63;;;;;;;5.20;82.57;100567.23;128429;1101;62125;-78
2021/05/02 04:21:56;;;;;;;20.03;12.10;;;;;;;5.22;82.41;100560.03;128382;1101;62318;-78
2021/05/02 04:24:23;;;;;;;15.10;8.83;;;;;;;5.24;82.39;100565.98;128434;1101;62447;-77
2021/05/02 04:26:52;;;;;;;22.43;11.37;;;;;;;5.25;82.44;100566.83;128438;1101;62510;-78
2021/05/02 04:29:29;;;;;;;17.47;9.07;;;;;;;5.27;83.26;100570.97;128416;1101;62174;-76
2021/05/02 04:31:55;;;;;;;20.57;9.37;;;;;;;5.28;83.17;100569.98;128428;1102;62033;-78
2021/05/02 04:34:23;;;;;;;16.73;10.20;;;;;;;5.29;83.12;100574.28;128428;1101;63277;-77
2021/05/02 04:36:51;;;;;;;15.03;10.53;;;;;;;5.30;82.23;100575.92;128411;1101;62351;-78
2021/05/02 04:39:18;;;;;;;18.33;11.40;;;;;;;5.33;82.47;100579.24;128412;1101;62082;-78
2021/05/02 04:41:46;;;;;;;17.57;10.93;;;;;;;5.36;82.54;100578.97;128383;1101;61925;-78
2021/05/02 04:44:18;;;;;;;20.33;11.73;;;;;;;5.38;82.71;100587.55;128455;1100;62235;-79
2021/05/02 04:46:46;;;;;;;17.27;11.03;;;;;;;5.40;82.42;100588.20;128448;1101;62050;-78
2021/05/02 04:49:13;;;;;;;14.40;8.93;;;;;;;5.43;82.01;100590.56;128443;1101;62363;-78
2021/05/02 04:51:40;;;;;;;13.33;7.37;;;;;;;5.43;83.00;100595.83;128405;1101;62511;-78
2021/05/02 04:54:07;;;;;;;19.40;12.03;;;;;;;5.47;82.48;100599.83;128393;1101;61982;-78
2021/05/02 04:56:36;;;;;;;19.73;12.50;;;;;;;5.51;81.96;100599.39;128400;1101;62063;-78
2021/05/02 04:59:03;;;;;;;17.87;10.33;;;;;;;5.54;82.06;100595.64;128476;1101;62221;-77
2021/05/02 05:01:30;;;;;;;17.17;10.37;;;;;;;5.54;82.11;100600.91;128391;1101;62857;-78
2021/05/02 05:03:57;;;;;;;12.83;7.90;;;;;;;5.55;81.73;100605.20;128368;1101;62314;-78
2021/05/02 05:06:24;;;;;;;20.37;12.20;;;;;;;5.58;81.93;100604.08;128352;1101;63149;-78
2021/05/02 05:08:53;;;;;;;16.37;10.23;;;;;;;5.61;81.52;100599.37;128404;1101;61973;-78
2021/05/02 05:11:22;;;;;;;18.20;10.67;;;;;;;5.65;81.68;100605.15;128353;1101;62217;-78
2021/05/02 05:13:49;;;;;;;17.30;11.00;;;;;;;5.68;81.68;100610.14;128410;1101;62237;-77
2021/05/02 05:16:16;;;;;;;14.00;9.13;;;;;;;5.71;81.36;100610.66;128108;1101;62112;-78
2021/05/02 05:18:43;;;;;;;13.53;8.33;;;;;;;5.75;80.54;100615.65;128448;1101;62553;-78
2021/05/02 05:21:10;;;;;;;13.67;7.97;;;;;;;5.77;80.96;100613.70;128385;1101;62024;-78
2021/05/02 05:23:37;;;;;;;15.43;9.40;;;;;;;5.79;80.60;100620.47;128394;1101;62178;-78
2021/05/02 05:26:03;;;;;;;13.07;7.90;;;;;;;5.86;80.77;100623.34;128424;1101;62642;-77
2021/05/02 05:28:30;;;;;;;10.27;6.60;;;;;;;5.92;80.69;100620.13;128118;1103;62485;-77
2021/05/02 05:30:57;;;;;;;15.63;9.93;;;;;;;5.95;80.21;100622.52;128356;1101;62510;-77
2021/05/02 05:33:29;;;;;;;12.97;8.80;;;;;;;5.95;80.56;100626.94;128401;1101;62325;-77
2021/05/02 05:35:57;;;;;;;16.67;10.37;;;;;;;5.96;80.21;100629.43;128386;1101;62033;-77
2021/05/02 05:38:23;;;;;;;14.67;9.20;;;;;;;5.97;80.40;100628.47;128405;1101;62246;-77
2021/05/02 05:40:50;;;;;;;13.40;8.53;;;;;;;6.00;80.15;100630.80;128370;1101;62580;-77
2021/05/02 05:43:17;;;;;;;18.67;11.97;;;;;;;6.04;79.93;100636.61;128363;1101;62082;-78
2021/05/02 05:45:44;;;;;;;15.80;9.53;;;;;;;6.05;79.41;100635.62;128339;1101;62734;-78
2021/05/02 05:48:11;;;;;;;13.80;8.67;;;;;;;6.06;79.53;100639.92;128349;1101;62473;-77
2021/05/02 05:50:39;;;;;;;14.97;8.50;;;;;;;6.09;79.22;100645.70;128113;1101;62471;-78
2021/05/02 05:53:06;;;;;;;11.20;6.67;;;;;;;6.11;79.60;100641.13;128280;1101;62225;-78
2021/05/02 05:55:32;;;;;;;12.67;7.67;;;;;;;6.13;79.35;100636.53;128355;1101;63448;-78
2021/05/02 05:57:59;;;;;;;16.93;10.50;;;;;;;6.19;79.38;100650.11;128356;1101;62290;-78
2021/05/02 06:00:26;;;;;;;11.30;7.40;;;;;;;6.20;78.67;100651.75;128372;1101;62235;-78
2021/05/02 06:02:52;;;;;;;16.20;10.53;;;;;;;6.21;78.57;100653.42;128374;1101;62747;-78
2021/05/02 06:05:22;;;;;;;11.13;7.30;;;;;;;6.19;78.54;100650.94;128333;1101;62659;-78
2021/05/02 06:07:48;;;;;;;16.47;9.23;;;;;;;6.22;78.35;100658.52;128083;1101;62295;-77
2021/05/02 06:10:15;;;;;;;14.27;8.63;;;;;;;6.22;77.84;100662.97;128363;1101;62749;-77
2021/05/02 06:12:42;;;;;;;11.57;8.00;;;;;;;6.18;78.03;100659.80;128306;1101;63058;-77
2021/05/02 06:15:10;;;;;;;12.50;7.97;;;;;;;6.17;78.20;100658.15;128217;1101;62857;-77
2021/05/02 06:17:37;;;;;;;9.57;5.77;;;;;;;6.15;78.59;100660.10;128281;1101;61990;-77
2021/05/02 06:20:05;;;;;;;11.53;6.40;;;;;;;6.18;78.11;100672.14;128356;1101;62408;-78
2021/05/02 06:22:32;;;;;;;13.13;7.83;;;;;;;6.22;78.23;100665.61;128345;1101;62221;-78
2021/05/02 06:24:59;;;;;;;13.23;9.03;;;;;;;6.23;78.79;100677.81;128346;1101;62122;-77
2021/05/02 06:27:25;;;;;;;12.40;7.63;;;;;;;6.23;77.67;100672.55;128370;1101;62895;-78
2021/05/02 06:29:53;;;;;;;13.03;8.07;;;;;;;6.19;77.73;100661.47;128318;1101;62058;-79
2021/05/02 06:32:20;;;;;;;15.50;8.30;;;;;;;6.26;78.42;100667.80;128338;1101;62442;-79
2021/05/02 06:34:47;;;;;;;13.13;6.37;;;;;;;6.31;78.05;100662.92;128323;1101;62259;-78
2021/05/02 06:37:14;;;;;;;12.10;7.40;;;;;;;6.35;77.17;100675.79;128331;1101;62257;-79
2021/05/02 06:39:42;;;;;;;9.03;5.37;;;;;;;6.34;76.40;100674.97;128337;1101;62766;-78
2021/05/02 06:42:10;;;;;;;12.43;7.27;;;;;;;6.35;76.70;100673.98;128329;1101;62110;-79
2021/05/02 06:44:37;;;;;;;9.53;6.17;;;;;;;6.39;76.70;100667.44;128369;1101;62188;-79
2021/05/02 06:47:05;;;;;;;10.03;5.80;;;;;;;6.43;76.43;100662.70;128385;1101;62487;-79
2021/05/02 06:49:32;;;;;;;10.73;6.23;;;;;;;6.45;76.21;100672.12;128372;1101;62215;-79
2021/05/02 06:51:59;;;;;;;8.17;5.30;;;;;;;6.46;75.00;100673.79;128355;1101;62837;-79
2021/05/02 06:54:26;;;;;;;7.23;4.67;;;;;;;6.47;74.88;100675.44;128360;1101;62663;-79
2021/05/02 06:56:52;;;;;;;16.30;5.90;;;;;;;6.50;75.10;100674.30;128320;1101;63272;-79
2021/05/02 06:59:19;;;;;;;10.97;7.07;;;;;;;6.53;75.43;100674.84;128354;1101;63401;-78
2021/05/02 07:01:46;;;;;;;10.00;5.53;;;;;;;6.57;75.66;100678.02;128348;1101;62534;-77
2021/05/02 07:04:13;;;;;;;8.97;6.17;;;;;;;6.57;75.10;100680.66;128321;1101;62337;-77
2021/05/02 07:06:39;;;;;;;9.27;5.40;;;;;;;6.63;75.23;100681.84;128330;1101;63000;-78
2021/05/02 07:09:06;;;;;;;9.73;6.00;;;;;;;6.69;75.91;100675.98;128338;1101;62973;-78
2021/05/02 07:11:33;;;;;;;14.03;8.17;;;;;;;6.80;75.49;100673.14;128386;1101;62210;-78
2021/05/02 07:14:01;;;;;;;11.63;5.80;;;;;;;6.94;75.05;100677.86;128395;1101;62357;-78
2021/05/02 07:16:29;;;;;;;13.47;7.60;;;;;;;7.10;74.79;100682.45;128439;1101;62830;-78
2021/05/02 07:18:55;;;;;;;11.30;6.07;;;;;;;7.20;74.03;100682.35;128352;1101;62038;-78
2021/05/02 07:21:22;;;;;;;11.03;6.30;;;;;;;7.38;73.01;100684.97;128421;1101;62117;-78
2021/05/02 07:23:53;;;;;;;6.13;3.93;;;;;;;7.64;71.91;100695.52;128350;1101;62211;-79
2021/05/02 07:26:21;;;;;;;9.40;6.27;;;;;;;7.80;71.18;100688.67;128397;1101;62169;-79
2021/05/02 07:28:49;;;;;;;10.50;4.70;;;;;;;7.93;71.48;100689.09;128436;1101;62816;-78
2021/05/02 07:31:16;;;;;;;10.87;6.20;;;;;;;7.98;70.69;100691.26;128338;1101;62586;-78
2021/05/02 07:33:43;;;;;;;10.70;6.30;;;;;;;8.09;70.62;100705.00;128371;1101;62580;-78
2021/05/02 07:36:12;;;;;;;10.30;6.47;;;;;;;8.14;69.11;100697.45;128370;1101;63179;-78
2021/05/02 07:38:38;;;;;;;7.83;5.43;;;;;;;8.08;69.61;100698.08;128354;1102;62227;-77
2021/05/02 07:41:05;;;;;;;10.23;6.40;;;;;;;8.08;69.07;100703.36;128352;1101;62294;-78
2021/05/02 07:43:35;;;;;;;8.20;5.53;;;;;;;8.11;68.48;100718.88;128380;1101;62203;-78
2021/05/02 07:46:02;;;;;;;8.67;5.73;;;;;;;8.26;68.67;100707.72;128431;1101;62646;-78
2021/05/02 07:48:29;;;;;;;8.33;6.07;;;;;;;8.47;68.09;100704.69;128398;1101;62744;-78
2021/05/02 07:50:56;;;;;;;5.87;3.97;;;;;;;8.68;68.25;100707.70;128277;1101;62410;-78
2021/05/02 07:53:23;;;;;;;7.83;5.37;;;;;;;8.68;66.85;100709.53;128319;1101;62651;-79
2021/05/02 07:55:50;;;;;;;7.17;4.23;;;;;;;8.70;67.22;100703.09;128349;1100;62190;-77
2021/05/02 07:58:17;;;;;;;7.50;5.33;;;;;;;8.71;67.23;100699.47;128338;1101;61986;-78
2021/05/02 08:00:43;;;;;;;6.90;4.27;;;;;;;8.73;66.55;100696.64;128352;1101;62600;-79
2021/05/02 08:03:10;;;;;;;9.30;5.00;;;;;;;8.90;67.09;100708.89;128287;1101;62051;-79
2021/05/02 08:05:37;;;;;;;8.90;6.30;;;;;;;9.02;67.06;100706.77;128075;1102;62934;-78
2021/05/02 08:08:03;;;;;;;7.47;4.40;;;;;;;9.12;66.82;100711.91;128271;1101;62559;-79
2021/05/02 08:10:30;;;;;;;7.30;4.63;;;;;;;9.21;65.11;100705.62;128216;1101;62431;-79
2021/05/02 08:12:57;;;;;;;10.83;5.43;;;;;;;9.26;64.60;100692.70;128257;1101;62747;-78
2021/05/02 08:15:24;;;;;;;7.30;5.03;;;;;;;9.24;65.60;100705.27;128287;1101;62254;-78
2021/05/02 08:17:51;;;;;;;8.37;5.13;;;;;;;9.29;64.43;100700.33;128239;1101;62563;-79
2021/05/02 08:20:17;;;;;;;6.73;4.27;;;;;;;9.49;64.65;100692.02;128265;1101;62056;-79
2021/05/02 08:22:44;;;;;;;9.20;4.47;;;;;;;9.70;63.11;100712.69;128259;1101;62541;-77
2021/05/02 08:25:11;;;;;;;8.07;5.00;;;;;;;9.88;63.02;100702.72;128320;1101;62468;-79
2021/05/02 08:27:38;;;;;;;9.50;5.40;;;;;;;10.07;61.83;100704.11;128272;1101;62224;-76
2021/05/02 08:30:06;;;;;;;7.47;4.57;;;;;;;10.26;61.62;100699.41;128317;1101;62253;-76
2021/05/02 08:32:32;;;;;;;7.20;5.17;;;;;;;10.39;61.13;100705.00;128320;1101;62627;-78
2021/05/02 08:35:01;;;;;;;6.50;4.33;;;;;;;10.55;61.33;100699.63;128312;1101;61950;-77
2021/05/02 08:37:29;;;;;;;5.13;3.90;;;;;;;10.59;59.62;100708.89;128389;1101;62694;-77
2021/05/02 08:39:56;;;;;;;8.77;4.43;;;;;;;10.69;60.26;100699.87;128386;1101;62164;-77
2021/05/02 08:42:22;;;;;;;8.73;4.57;;;;;;;10.79;60.53;100727.00;128339;1101;62398;-77
2021/05/02 08:44:50;;;;;;;9.03;4.90;;;;;;;10.64;59.56;100702.23;128328;1101;62425;-77
2021/05/02 08:47:18;;;;;;;5.93;3.90;;;;;;;10.55;60.87;100707.58;128299;1101;62186;-77
2021/05/02 08:49:45;;;;;;;7.03;4.10;;;;;;;10.28;60.03;100723.92;128074;1102;62249;-77
2021/05/02 08:52:11;;;;;;;7.73;5.17;;;;;;;9.98;61.49;100713.09;128388;1101;62094;-74
2021/05/02 08:54:40;;;;;;;7.07;4.60;;;;;;;9.83;61.78;100714.81;128455;1101;62346;-74
2021/05/02 08:57:07;;;;;;;5.70;3.33;;;;;;;9.69;62.81;100711.86;128377;1101;61970;-74
2021/05/02 08:59:34;;;;;;;7.80;3.77;;;;;;;9.53;63.71;100711.88;128329;1101;62268;-73
2021/05/02 09:02:00;;;;;;;6.03;3.60;;;;;;;9.56;64.04;100708.89;128409;1101;62288;-74
2021/05/02 09:04:27;;;;;;;8.27;4.90;;;;;;;9.49;64.97;100713.21;128353;1101;63536;-74
2021/05/02 09:06:54;;;;;;;8.17;4.47;;;;;;;9.27;64.46;100734.08;128336;1101;62708;-75
2021/05/02 09:09:21;;;;;;;7.83;4.30;;;;;;;9.21;66.05;100732.08;128348;1101;62374;-75
2021/05/02 09:11:49;;;;;;;8.67;4.13;;;;;;;9.24;66.61;100730.92;128395;1101;62274;-79
2021/05/02 09:14:23;;;;;;;12.07;5.30;;;;;;;9.26;65.81;100724.47;128123;1101;62317;-79
2021/05/02 09:16:52;;;;;;;7.65;5.05;;;;;;;9.34;64.83;100711.23;128392;1101;63186;-78
2021/05/02 09:19:21;;;;;;;6.90;4.50;;;;;;;9.54;65.75;100724.11;128462;1094;62244;-78
2021/05/02 09:21:49;;;;;;;8.30;5.50;;;;;;;9.71;65.84;100724.92;128362;1101;62581;-77
2021/05/02 09:24:27;;;;;;;11.17;5.67;;;;;;;9.92;66.51;100714.59;128369;1101;62462;-77
2021/05/02 09:27:14;;;;;;;8.00;5.50;;;;;;;10.10;64.05;100717.05;128337;1101;62352;-77
2021/05/02 09:29:44;;;;;;;10.37;6.37;;;;;;;10.16;64.43;100716.36;128419;1101;62592;-77
2021/05/02 09:32:13;;;;;;;8.80;5.33;;;;;;;10.12;64.23;100725.65;128407;1101;62715;-78
2021/05/02 09:34:54;;;;;;;6.70;4.83;;;;;;;9.91;64.74;100722.73;128338;1101;62184;-77
2021/05/02 09:37:31;;;;;;;8.13;5.67;;;;;;;9.68;65.65;100728.73;128400;1101;62252;-78
2021/05/02 09:40:00;;;;;;;7.47;5.70;;;;;;;9.53;66.48;100723.30;128325;1101;62342;-77
2021/05/02 09:42:45;;;;;;;9.63;5.10;;;;;;;9.50;66.52;100725.44;128378;1101;63993;-77
2021/05/02 09:45:13;;;;;;;11.40;7.17;;;;;;;9.37;65.74;100737.39;128393;1101;62839;-77
2021/05/02 09:47:42;;;;;;;9.10;5.97;;;;;;;9.37;65.28;100732.09;128397;1101;62306;-78
2021/05/02 09:50:13;;;;;;;10.03;6.47;;;;;;;9.34;66.05;100732.41;128411;1101;62225;-78
2021/05/02 09:53:07;;;;;;;7.17;4.20;;;;;;;9.39;65.68;100730.11;128374;1101;62202;-78
2021/05/02 09:55:43;;;;;;;8.83;5.27;;;;;;;9.49;64.07;100732.56;128371;1101;62530;-77
2021/05/02 09:58:15;;;;;;;7.50;4.97;;;;;;;9.63;65.00;100735.52;128354;1101;64115;-78
2021/05/02 10:00:44;;;;;;;7.23;5.07;;;;;;;9.86;63.20;100735.66;128279;1101;62542;-78
2021/05/02 10:03:31;;;;;;;8.37;4.00;;;;;;;9.95;63.64;100745.25;128319;1101;62232;-78
2021/05/02 10:06:05;;;;;;;7.00;4.73;;;;;;;10.05;62.02;100739.74;128387;1101;62351;-79
2021/05/02 10:08:37;;;;;;;7.70;4.90;;;;;;;10.16;61.49;100732.27;128469;1101;62796;-78
2021/05/02 10:11:09;;;;;;;9.97;4.83;;;;;;;10.28;61.91;100742.48;128422;1101;62796;-77
2021/05/02 10:13:39;;;;;;;6.57;4.93;;;;;;;10.37;61.75;100730.87;128300;1101;62159;-79
2021/05/02 10:16:06;;;;;;;6.47;3.87;;;;;;;10.36;61.91;100730.05;128261;1101;62485;-78
2021/05/02 10:18:36;;;;;;;7.33;4.20;;;;;;;10.16;62.46;100731.45;127767;1101;63636;-79
2021/05/02 10:21:05;;;;;;;7.37;5.40;;;;;;;9.95;63.36;100729.35;128299;1101;62021;-79
2021/05/02 10:23:34;;;;;;;9.27;5.50;;;;;;;9.76;64.58;100725.26;128263;1101;64243;-79
2021/05/02 10:26:02;;;;;;;8.97;4.63;;;;;;;9.50;64.60;100731.59;127981;1101;62285;-78
2021/05/02 10:28:31;;;;;;;9.23;5.53;;;;;;;9.24;66.47;100744.98;128290;1101;62368;-79
2021/05/02 10:31:00;;;;;;;7.93;4.83;;;;;;;9.00;65.90;100758.20;128269;1101;62471;-78
2021/05/02 10:33:44;;;;;;;4.13;3.17;;;;;;;8.61;66.61;100764.03;128184;1101;62241;-79
2021/05/02 10:36:12;;;;;;;5.03;2.87;;;;;;;8.21;70.46;100765.52;128223;1101;62532;-78
2021/05/02 10:38:53;;;;;;;9.97;4.73;;;;;;;7.92;72.25;100759.56;128132;1101;62769;-79
2021/05/02 10:41:36;;;;;;;6.17;3.77;;;;;;;7.76;73.86;100762.95;128136;1101;62345;-79
2021/05/02 10:44:12;;;;;;;4.63;2.73;;;;;;;7.66;76.71;100762.20;128163;1101;64135;-80
2021/05/02 10:47:00;;;;;;;7.37;4.97;;;;;;;7.59;76.19;100758.54;128082;1094;62613;-80
2021/05/02 10:49:28;;;;;;;5.20;3.37;;;;;;;7.48;77.43;100758.76;127903;1101;63700;-81
2021/05/02 10:52:28;;;;;;;4.37;2.27;;;;;;;7.43;77.61;100753.95;128059;1101;64152;-73
2021/05/02 10:55:09;;;;;;;5.97;3.33;;;;;;;7.43;77.31;100761.86;127966;1101;63267;-74
2021/05/02 10:57:36;;;;;;;9.60;4.57;;;;;;;7.50;77.22;100770.00;128137;1101;62350;-74
2021/05/02 11:00:03;;;;;;;7.90;4.10;;;;;;;7.58;76.67;100766.60;128300;1101;62259;-73
2021/05/02 11:02:44;;;;;;;6.73;5.13;;;;;;;7.76;76.16;100767.41;128336;1101;62455;-74
2021/05/02 11:05:14;;;;;;;7.60;4.20;;;;;;;7.97;75.59;100767.05;128296;1101;62425;-72
2021/05/02 11:07:46;;;;;;;6.83;4.03;;;;;;;8.15;74.68;100770.42;128418;1101;62116;-72
2021/05/02 11:10:15;;;;;;;7.40;4.73;;;;;;;8.28;71.95;100771.81;128234;1101;62157;-72
2021/05/02 11:12:43;;;;;;;8.37;4.63;;;;;;;8.35;71.15;100775.47;128236;1101;63758;-72
2021/05/02 11:15:29;;;;;;;7.57;3.53;;;;;;;8.45;71.43;100785.97;128320;1101;62816;-72
2021/05/02 11:17:55;;;;;;;8.77;5.03;;;;;;;8.48;70.76;100783.84;128417;1101;62470;-72
2021/05/02 11:20:44;;;;;;;10.00;5.87;;;;;;;8.52;70.37;100789.63;128358;1101;62053;-72
2021/05/02 11:23:10;;;;;;;5.73;3.47;;;;;;;8.60;70.99;100791.48;128370;1101;62769;-72
2021/05/02 11:25:46;;;;;;;8.25;5.05;;;;;;;8.75;69.89;100784.59;128359;1101;62268;-73
2021/05/02 11:28:46;;;;;;;7.73;4.30;;;;;;;9.06;68.34;100781.37;128343;1101;62900;-72